sensor_id;sensor_type;location;lat;lon;timestamp;pressure;altitude;pressure_sealevel;temperature;humidity
5522;BME280;2783;48.730;8.006;2023-01-29T00:01:40;101362.72;;;3.60;76.46
5522;BME280;2783;48.730;8.006;2023-01-29T00:04:05;101360.16;;;3.63;75.99
5522;BME280;2783;48.730;8.006;2023-01-29T00:06:31;101363.59;;;3.59;76.06
5522;BME280;2783;48.730;8.006;2023-01-29T00:08:56;101358.38;;;3.62;76.23
5522;BME280;2783;48.730;8.006;2023-01-29T00:11:22;101352.16;;;3.57;76.42
5522;BME280;2783;48.730;8.006;2023-01-29T00:13:49;101346.00;;;3.56;76.61
5522;BME280;2783;48.730;8.006;2023-01-29T00:16:15;101346.88;;;3.54;75.85
5522;BME280;2783;48.730;8.006;2023-01-29T00:18:40;101348.66;;;3.58;75.46
5522;BME280;2783;48.730;8.006;2023-01-29T00:21:12;101338.06;;;3.52;74.50
5522;BME280;2783;48.730;8.006;2023-01-29T00:23:39;101342.44;;;3.53;74.05
5522;BME280;2783;48.730;8.006;2023-01-29T00:26:05;101337.13;;;3.50;74.05
5522;BME280;2783;48.730;8.006;2023-01-29T00:28:30;101333.66;;;3.51;73.88
5522;BME280;2783;48.730;8.006;2023-01-29T00:30:55;101338.94;;;3.51;74.36
5522;BME280;2783;48.730;8.006;2023-01-29T00:33:20;101343.34;;;3.55;74.34
5522;BME280;2783;48.730;8.006;2023-01-29T00:35:46;101338.94;;;3.51;74.83
5522;BME280;2783;48.730;8.006;2023-01-29T00:38:11;101340.66;;;3.50;74.80
5522;BME280;2783;48.730;8.006;2023-01-29T00:40:37;101341.44;;;3.46;75.35
5522;BME280;2783;48.730;8.006;2023-01-29T00:43:21;101333.66;;;3.51;75.26
5522;BME280;2783;48.730;8.006;2023-01-29T00:46:05;101333.66;;;3.51;75.76
5522;BME280;2783;48.730;8.006;2023-01-29T00:48:31;101337.13;;;3.50;75.86
5522;BME280;2783;48.730;8.006;2023-01-29T00:50:56;101335.38;;;3.49;76.22
5522;BME280;2783;48.730;8.006;2023-01-29T00:53:21;101335.41;;;3.52;76.28
5522;BME280;2783;48.730;8.006;2023-01-29T00:55:46;101331.97;;;3.56;76.31
5522;BME280;2783;48.730;8.006;2023-01-29T00:58:12;101331.13;;;3.57;76.41
5522;BME280;2783;48.730;8.006;2023-01-29T01:00:37;101330.16;;;3.52;75.91
5522;BME280;2783;48.730;8.006;2023-01-29T01:03:02;101338.88;;;3.49;75.41
5522;BME280;2783;48.730;8.006;2023-01-29T01:05:30;101333.50;;;3.42;75.53
5522;BME280;2783;48.730;8.006;2023-01-29T01:07:56;101336.03;;;3.36;74.41
5522;BME280;2783;48.730;8.006;2023-01-29T01:10:23;101334.28;;;3.38;74.81
5522;BME280;2783;48.730;8.006;2023-01-29T01:12:58;101331.72;;;3.41;74.54
5522;BME280;2783;48.730;8.006;2023-01-29T01:15:24;101334.38;;;3.41;74.84
5522;BME280;2783;48.730;8.006;2023-01-29T01:17:51;101338.63;;;3.34;74.40
5522;BME280;2783;48.730;8.006;2023-01-29T01:20:16;101344.81;;;3.38;74.81
5522;BME280;2783;48.730;8.006;2023-01-29T01:22:41;101344.88;;;3.39;75.07
5522;BME280;2783;48.730;8.006;2023-01-29T01:25:07;101339.44;;;3.30;74.62
5522;BME280;2783;48.730;8.006;2023-01-29T01:27:32;101339.34;;;3.26;74.19
5522;BME280;2783;48.730;8.006;2023-01-29T01:29:58;101344.66;;;3.29;74.69
5522;BME280;2783;48.730;8.006;2023-01-29T01:32:24;101336.78;;;3.29;74.35
5522;BME280;2783;48.730;8.006;2023-01-29T01:34:50;101355.06;;;3.23;74.58
5522;BME280;2783;48.730;8.006;2023-01-29T01:37:16;101339.28;;;3.21;73.61
5522;BME280;2783;48.730;8.006;2023-01-29T01:39:41;101345.41;;;3.22;73.45
5522;BME280;2783;48.730;8.006;2023-01-29T01:42:12;101347.22;;;3.24;73.89
5522;BME280;2783;48.730;8.006;2023-01-29T01:47:15;101353.22;;;3.19;72.90
5522;BME280;2783;48.730;8.006;2023-01-29T01:49:41;101360.22;;;3.18;73.34
5522;BME280;2783;48.730;8.006;2023-01-29T01:52:08;101355.09;;;3.24;73.52
5522;BME280;2783;48.730;8.006;2023-01-29T01:54:33;101354.97;;;3.18;72.83
5522;BME280;2783;48.730;8.006;2023-01-29T01:57:03;101350.53;;;3.14;72.16
5522;BME280;2783;48.730;8.006;2023-01-29T01:59:33;101344.44;;;3.18;73.23
5522;BME280;2783;48.730;8.006;2023-01-29T02:01:59;101348.03;;;3.22;73.25
5522;BME280;2783;48.730;8.006;2023-01-29T02:04:45;101348.00;;;3.20;73.21
5522;BME280;2783;48.730;8.006;2023-01-29T02:07:30;101342.03;;;3.29;73.66
5522;BME280;2783;48.730;8.006;2023-01-29T02:10:14;101338.47;;;3.27;74.12
5522;BME280;2783;48.730;8.006;2023-01-29T02:12:41;101341.97;;;3.26;74.47
5522;BME280;2783;48.730;8.006;2023-01-29T02:18:11;101334.78;;;3.16;73.05
5522;BME280;2783;48.730;8.006;2023-01-29T02:20:36;101336.53;;;3.17;72.56
5522;BME280;2783;48.730;8.006;2023-01-29T02:28:05;101338.22;;;3.13;73.91
5522;BME280;2783;48.730;8.006;2023-01-29T02:30:35;101335.56;;;3.10;73.61
5522;BME280;2783;48.730;8.006;2023-01-29T02:35:46;101347.06;;;3.17;73.65
5522;BME280;2783;48.730;8.006;2023-01-29T02:40:52;101347.91;;;3.14;74.09
5522;BME280;2783;48.730;8.006;2023-01-29T02:48:56;101339.22;;;3.20;74.32
5522;BME280;2783;48.730;8.006;2023-01-29T02:51:42;101345.31;;;3.16;74.18
5522;BME280;2783;48.730;8.006;2023-01-29T02:54:23;101338.19;;;3.12;74.15
5522;BME280;2783;48.730;8.006;2023-01-29T02:56:58;101332.13;;;3.14;75.06
5522;BME280;2783;48.730;8.006;2023-01-29T02:59:30;101334.84;;;3.19;75.66
5522;BME280;2783;48.730;8.006;2023-01-29T03:02:02;101333.06;;;3.16;75.14
5522;BME280;2783;48.730;8.006;2023-01-29T03:04:30;101335.56;;;3.12;74.68
5522;BME280;2783;48.730;8.006;2023-01-29T03:07:02;101341.69;;;3.11;74.48
5522;BME280;2783;48.730;8.006;2023-01-29T03:09:34;101342.69;;;3.17;74.44
5522;BME280;2783;48.730;8.006;2023-01-29T03:12:19;101342.63;;;3.13;75.06
5522;BME280;2783;48.730;8.006;2023-01-29T03:15:07;101336.53;;;3.17;75.39
5522;BME280;2783;48.730;8.006;2023-01-29T03:17:36;101341.66;;;3.08;74.52
5522;BME280;2783;48.730;8.006;2023-01-29T03:20:03;101338.19;;;3.10;74.36
5522;BME280;2783;48.730;8.006;2023-01-29T03:22:32;101327.59;;;3.06;74.27
5522;BME280;2783;48.730;8.006;2023-01-29T03:24:57;101331.94;;;3.05;74.73
5522;BME280;2783;48.730;8.006;2023-01-29T03:27:43;101326.75;;;3.08;74.12
5522;BME280;2783;48.730;8.006;2023-01-29T03:30:28;101318.72;;;3.01;74.32
5522;BME280;2783;48.730;8.006;2023-01-29T03:33:12;101325.72;;;3.00;74.37
5522;BME280;2783;48.730;8.006;2023-01-29T03:35:40;101337.91;;;2.97;74.54
5522;BME280;2783;48.730;8.006;2023-01-29T03:38:08;101329.13;;;2.95;73.99
5522;BME280;2783;48.730;8.006;2023-01-29T03:40:38;101325.66;;;2.97;73.84
5522;BME280;2783;48.730;8.006;2023-01-29T03:46:17;101334.25;;;2.89;74.21
5522;BME280;2783;48.730;8.006;2023-01-29T03:48:28;101336.06;;;2.90;73.81
5522;BME280;2783;48.730;8.006;2023-01-29T03:56:01;101332.56;;;2.91;75.08
5522;BME280;2783;48.730;8.006;2023-01-29T04:01:18;101334.19;;;2.86;74.47
5522;BME280;2783;48.730;8.006;2023-01-29T04:03:49;101325.41;;;2.84;75.01
5522;BME280;2783;48.730;8.006;2023-01-29T04:06:22;101335.03;;;2.83;74.60
5522;BME280;2783;48.730;8.006;2023-01-29T04:11:18;101331.41;;;2.77;76.04
5522;BME280;2783;48.730;8.006;2023-01-29T04:13:44;101333.16;;;2.76;76.17
5522;BME280;2783;48.730;8.006;2023-01-29T04:16:12;101340.16;;;2.77;77.59
5522;BME280;2783;48.730;8.006;2023-01-29T04:18:43;101334.03;;;2.77;77.75
5522;BME280;2783;48.730;8.006;2023-01-29T04:21:08;101336.56;;;2.72;77.90
5522;BME280;2783;48.730;8.006;2023-01-29T04:23:33;101339.06;;;2.66;77.39
5522;BME280;2783;48.730;8.006;2023-01-29T04:31:30;101331.88;;;2.57;77.86
5522;BME280;2783;48.730;8.006;2023-01-29T04:39:02;101333.59;;;2.55;77.73
5522;BME280;2783;48.730;8.006;2023-01-29T04:41:34;101334.31;;;2.47;78.45
5522;BME280;2783;48.730;8.006;2023-01-29T04:49:17;101325.25;;;2.33;79.06
5522;BME280;2783;48.730;8.006;2023-01-29T04:52:29;101335.69;;;2.30;79.24
5522;BME280;2783;48.730;8.006;2023-01-29T04:54:36;101330.44;;;2.30;80.03
5522;BME280;2783;48.730;8.006;2023-01-29T05:02:27;101330.41;;;2.28;80.42
5522;BME280;2783;48.730;8.006;2023-01-29T05:04:54;101331.22;;;2.27;81.21
5522;BME280;2783;48.730;8.006;2023-01-29T05:07:20;101326.91;;;2.29;81.02
5522;BME280;2783;48.730;8.006;2023-01-29T05:09:46;101333.94;;;2.30;81.17
5522;BME280;2783;48.730;8.006;2023-01-29T05:12:13;101340.03;;;2.29;81.81
5522;BME280;2783;48.730;8.006;2023-01-29T05:14:40;101345.28;;;2.29;81.37
5522;BME280;2783;48.730;8.006;2023-01-29T05:17:17;101343.66;;;2.34;81.33
5522;BME280;2783;48.730;8.006;2023-01-29T05:19:44;101347.25;;;2.39;80.90
5522;BME280;2783;48.730;8.006;2023-01-29T05:22:10;101352.56;;;2.42;81.65
5522;BME280;2783;48.730;8.006;2023-01-29T05:24:36;101346.50;;;2.45;80.89
5522;BME280;2783;48.730;8.006;2023-01-29T05:27:02;101350.06;;;2.47;81.03
5522;BME280;2783;48.730;8.006;2023-01-29T05:29:46;101332.56;;;2.49;80.09
5522;BME280;2783;48.730;8.006;2023-01-29T05:32:11;101325.59;;;2.49;80.61
5522;BME280;2783;48.730;8.006;2023-01-29T05:34:37;101313.22;;;2.44;79.68
5522;BME280;2783;48.730;8.006;2023-01-29T05:37:02;101305.31;;;2.42;79.21
5522;BME280;2783;48.730;8.006;2023-01-29T05:39:28;101296.59;;;2.43;79.06
5522;BME280;2783;48.730;8.006;2023-01-29T05:41:53;101294.75;;;2.39;78.94
5522;BME280;2783;48.730;8.006;2023-01-29T05:44:18;101306.09;;;2.37;79.28
5522;BME280;2783;48.730;8.006;2023-01-29T05:46:44;101313.94;;;2.35;79.26
5522;BME280;2783;48.730;8.006;2023-01-29T05:49:10;101320.03;;;2.34;79.51
5522;BME280;2783;48.730;8.006;2023-01-29T05:51:35;101315.63;;;2.33;79.89
5522;BME280;2783;48.730;8.006;2023-01-29T05:54:00;101310.22;;;2.26;79.38
5522;BME280;2783;48.730;8.006;2023-01-29T05:56:26;101310.19;;;2.24;78.81
5522;BME280;2783;48.730;8.006;2023-01-29T05:58:51;101322.47;;;2.25;78.99
5522;BME280;2783;48.730;8.006;2023-01-29T06:01:18;101321.66;;;2.29;79.47
5522;BME280;2783;48.730;8.006;2023-01-29T06:03:44;101313.72;;;2.26;79.74
5522;BME280;2783;48.730;8.006;2023-01-29T06:06:09;101316.41;;;2.29;80.07
5522;BME280;2783;48.730;8.006;2023-01-29T06:08:34;101333.09;;;2.31;80.16
5522;BME280;2783;48.730;8.006;2023-01-29T06:11:00;101334.72;;;2.26;81.13
5522;BME280;2783;48.730;8.006;2023-01-29T06:13:25;101335.59;;;2.25;81.04
5522;BME280;2783;48.730;8.006;2023-01-29T06:15:50;101333.03;;;2.28;81.29
5522;BME280;2783;48.730;8.006;2023-01-29T06:18:15;101341.84;;;2.30;81.19
5522;BME280;2783;48.730;8.006;2023-01-29T06:20:41;101348.78;;;2.28;81.17
5522;BME280;2783;48.730;8.006;2023-01-29T06:23:06;101350.50;;;2.28;81.34
5522;BME280;2783;48.730;8.006;2023-01-29T06:25:31;101340.81;;;2.24;81.77
5522;BME280;2783;48.730;8.006;2023-01-29T06:27:57;101348.66;;;2.22;81.65
5522;BME280;2783;48.730;8.006;2023-01-29T06:30:22;101350.28;;;2.17;80.50
5522;BME280;2783;48.730;8.006;2023-01-29T06:32:47;101341.56;;;2.18;80.65
5522;BME280;2783;48.730;8.006;2023-01-29T06:35:12;101348.50;;;2.16;81.01
5522;BME280;2783;48.730;8.006;2023-01-29T06:37:38;101343.19;;;2.13;80.27
5522;BME280;2783;48.730;8.006;2023-01-29T06:40:03;101344.81;;;2.08;80.19
5522;BME280;2783;48.730;8.006;2023-01-29T06:42:28;101344.03;;;2.11;79.68
5522;BME280;2783;48.730;8.006;2023-01-29T06:44:54;101344.91;;;2.13;79.87
5522;BME280;2783;48.730;8.006;2023-01-29T06:47:19;101346.69;;;2.12;80.02
5522;BME280;2783;48.730;8.006;2023-01-29T06:49:45;101336.16;;;2.11;80.65
5522;BME280;2783;48.730;8.006;2023-01-29T06:52:10;101340.47;;;2.09;81.26
5522;BME280;2783;48.730;8.006;2023-01-29T06:54:35;101339.59;;;2.10;80.75
5522;BME280;2783;48.730;8.006;2023-01-29T06:57:00;101336.97;;;2.10;81.04
5522;BME280;2783;48.730;8.006;2023-01-29T06:59:26;101340.44;;;2.07;80.15
5522;BME280;2783;48.730;8.006;2023-01-29T07:01:51;101330.75;;;2.05;80.46
5522;BME280;2783;48.730;8.006;2023-01-29T07:04:16;101330.66;;;2.00;81.32
5522;BME280;2783;48.730;8.006;2023-01-29T07:06:41;101326.31;;;2.02;80.61
5522;BME280;2783;48.730;8.006;2023-01-29T07:09:07;101325.47;;;2.03;80.24
5522;BME280;2783;48.730;8.006;2023-01-29T07:11:35;101328.03;;;2.00;80.63
5522;BME280;2783;48.730;8.006;2023-01-29T07:14:01;101330.66;;;2.00;81.67
5522;BME280;2783;48.730;8.006;2023-01-29T07:16:27;101333.31;;;2.02;81.58
5522;BME280;2783;48.730;8.006;2023-01-29T07:18:52;101343.81;;;2.03;82.46
5522;BME280;2783;48.730;8.006;2023-01-29T07:21:17;101343.88;;;2.06;82.18
5522;BME280;2783;48.730;8.006;2023-01-29T07:23:43;101344.88;;;2.11;82.46
5522;BME280;2783;48.730;8.006;2023-01-29T07:26:08;101350.19;;;2.14;82.21
5522;BME280;2783;48.730;8.006;2023-01-29T07:28:35;101354.69;;;2.18;82.78
5522;BME280;2783;48.730;8.006;2023-01-29T07:31:00;101352.09;;;2.21;82.97
5522;BME280;2783;48.730;8.006;2023-01-29T07:33:26;101360.16;;;2.29;82.07
5522;BME280;2783;48.730;8.006;2023-01-29T07:35:51;101362.03;;;2.34;83.27
5522;BME280;2783;48.730;8.006;2023-01-29T07:38:17;101370.75;;;2.33;81.36
5522;BME280;2783;48.730;8.006;2023-01-29T07:40:42;101375.38;;;2.43;82.25
5522;BME280;2783;48.730;8.006;2023-01-29T07:43:07;101367.69;;;2.54;81.74
5522;BME280;2783;48.730;8.006;2023-01-29T07:45:36;101373.72;;;2.48;80.12
5522;BME280;2783;48.730;8.006;2023-01-29T07:48:02;101368.72;;;2.60;79.47
5522;BME280;2783;48.730;8.006;2023-01-29T07:50:29;101369.75;;;2.68;78.82
5522;BME280;2783;48.730;8.006;2023-01-29T07:52:54;101375.13;;;2.73;77.79
5522;BME280;2783;48.730;8.006;2023-01-29T07:55:20;101375.16;;;2.75;77.66
5522;BME280;2783;48.730;8.006;2023-01-29T07:57:45;101370.00;;;2.81;77.03
5522;BME280;2783;48.730;8.006;2023-01-29T08:00:11;101368.38;;;2.86;75.97
5522;BME280;2783;48.730;8.006;2023-01-29T08:02:37;101379.03;;;2.93;76.80
5522;BME280;2783;48.730;8.006;2023-01-29T08:05:03;101398.50;;;3.03;76.54
5522;BME280;2783;48.730;8.006;2023-01-29T08:07:28;101399.53;;;3.11;76.57
5522;BME280;2783;48.730;8.006;2023-01-29T08:09:53;101408.34;;;3.13;77.01
5522;BME280;2783;48.730;8.006;2023-01-29T08:12:18;101413.69;;;3.19;76.35
5522;BME280;2783;48.730;8.006;2023-01-29T08:14:44;101419.00;;;3.22;76.54
5522;BME280;2783;48.730;8.006;2023-01-29T08:17:10;101418.22;;;3.26;76.23
5522;BME280;2783;48.730;8.006;2023-01-29T08:19:35;101419.03;;;3.23;76.27
5522;BME280;2783;48.730;8.006;2023-01-29T08:22:00;101424.44;;;3.29;75.56
5522;BME280;2783;48.730;8.006;2023-01-29T08:24:25;101414.00;;;3.34;75.71
5522;BME280;2783;48.730;8.006;2023-01-29T08:26:51;101421.13;;;3.39;75.50
5522;BME280;2783;48.730;8.006;2023-01-29T08:29:16;101415.81;;;3.38;74.69
5522;BME280;2783;48.730;8.006;2023-01-29T08:31:42;101414.28;;;3.49;74.40
5522;BME280;2783;48.730;8.006;2023-01-29T08:34:07;101419.72;;;3.59;74.52
5522;BME280;2783;48.730;8.006;2023-01-29T08:36:32;101417.28;;;3.70;74.76
5522;BME280;2783;48.730;8.006;2023-01-29T08:38:58;101420.00;;;3.76;75.28
5522;BME280;2783;48.730;8.006;2023-01-29T08:41:24;101421.00;;;3.84;75.10
5522;BME280;2783;48.730;8.006;2023-01-29T08:43:49;101421.97;;;3.89;74.22
5522;BME280;2783;48.730;8.006;2023-01-29T08:46:14;101430.97;;;4.00;73.92
5522;BME280;2783;48.730;8.006;2023-01-29T08:48:39;101418.84;;;4.11;73.83
5522;BME280;2783;48.730;8.006;2023-01-29T08:51:05;101417.16;;;4.16;72.89
5522;BME280;2783;48.730;8.006;2023-01-29T08:53:30;101415.47;;;4.18;71.54
5522;BME280;2783;48.730;8.006;2023-01-29T08:55:55;101372.41;;;4.15;71.26
5522;BME280;2783;48.730;8.006;2023-01-29T08:58:21;101417.97;;;4.70;70.75
5522;BME280;2783;48.730;8.006;2023-01-29T09:00:46;101415.72;;;5.00;69.74
5522;BME280;2783;48.730;8.006;2023-01-29T09:03:11;101412.41;;;5.18;68.36
5522;BME280;2783;48.730;8.006;2023-01-29T09:05:37;101410.72;;;5.26;68.34
5522;BME280;2783;48.730;8.006;2023-01-29T09:08:03;101411.63;;;5.25;67.09
5522;BME280;2783;48.730;8.006;2023-01-29T09:10:29;101402.81;;;5.24;66.76
5522;BME280;2783;48.730;8.006;2023-01-29T09:12:54;101401.06;;;5.23;65.20
5522;BME280;2783;48.730;8.006;2023-01-29T09:15:19;101406.41;;;5.32;65.25
5522;BME280;2783;48.730;8.006;2023-01-29T09:17:45;101400.34;;;5.41;64.90
5522;BME280;2783;48.730;8.006;2023-01-29T09:20:10;101404.91;;;5.59;63.97
5522;BME280;2783;48.730;8.006;2023-01-29T09:22:36;101400.53;;;5.61;62.61
5522;BME280;2783;48.730;8.006;2023-01-29T09:25:01;101412.91;;;5.63;62.90
5522;BME280;2783;48.730;8.006;2023-01-29T09:27:26;101419.16;;;5.76;62.05
5522;BME280;2783;48.730;8.006;2023-01-29T09:29:52;101423.63;;;5.81;61.20
5522;BME280;2783;48.730;8.006;2023-01-29T09:32:17;101436.94;;;5.95;61.75
5522;BME280;2783;48.730;8.006;2023-01-29T09:34:42;101438.88;;;6.09;61.24
5522;BME280;2783;48.730;8.006;2023-01-29T09:37:08;101432.59;;;5.98;60.08
5522;BME280;2783;48.730;8.006;2023-01-29T09:39:33;101426.59;;;6.16;59.74
5522;BME280;2783;48.730;8.006;2023-01-29T09:47:04;101398.09;;;7.33;56.82
5522;BME280;2783;48.730;8.006;2023-01-29T09:49:35;101402.56;;;7.55;56.19
5522;BME280;2783;48.730;8.006;2023-01-29T09:52:11;101384.03;;;7.76;55.48
5522;BME280;2783;48.730;8.006;2023-01-29T09:57:06;101364.59;;;8.11;53.64
5522;BME280;2783;48.730;8.006;2023-01-29T09:59:35;101363.66;;;8.60;53.16
5522;BME280;2783;48.730;8.006;2023-01-29T10:07:20;101359.28;;;8.23;49.58
5522;BME280;2783;48.730;8.006;2023-01-29T10:15:12;101364.63;;;7.79;51.98
5522;BME280;2783;48.730;8.006;2023-01-29T10:25:40;101372.50;;;7.35;54.14
5522;BME280;2783;48.730;8.006;2023-01-29T10:30:50;101368.06;;;7.24;53.90
5522;BME280;2783;48.730;8.006;2023-01-29T10:33:23;101372.50;;;7.38;54.29
5522;BME280;2783;48.730;8.006;2023-01-29T10:35:52;101375.13;;;7.22;53.44
5522;BME280;2783;48.730;8.006;2023-01-29T10:41:02;101373.38;;;7.30;54.94
5522;BME280;2783;48.730;8.006;2023-01-29T10:47:03;101371.69;;;7.62;53.04
5522;BME280;2783;48.730;8.006;2023-01-29T10:54:27;101360.22;;;7.72;52.97
5522;BME280;2783;48.730;8.006;2023-01-29T11:02:19;101373.47;;;7.84;53.50
5522;BME280;2783;48.730;8.006;2023-01-29T11:04:46;101366.38;;;7.93;53.39
5522;BME280;2783;48.730;8.006;2023-01-29T11:07:12;101365.50;;;7.85;52.55
5522;BME280;2783;48.730;8.006;2023-01-29T11:09:59;101376.09;;;8.19;53.63
5522;BME280;2783;48.730;8.006;2023-01-29T11:12:27;101377.84;;;8.36;51.26
5522;BME280;2783;48.730;8.006;2023-01-29T11:15:02;101369.94;;;8.30;53.15
5522;BME280;2783;48.730;8.006;2023-01-29T11:17:29;101354.88;;;8.34;51.92
5522;BME280;2783;48.730;8.006;2023-01-29T11:19:54;101350.47;;;8.34;51.39
5522;BME280;2783;48.730;8.006;2023-01-29T11:22:23;101346.91;;;8.32;51.70
5522;BME280;2783;48.730;8.006;2023-01-29T11:25:09;101340.78;;;8.01;50.17
5522;BME280;2783;48.730;8.006;2023-01-29T11:27:38;101338.09;;;8.11;52.06
5522;BME280;2783;48.730;8.006;2023-01-29T11:30:05;101334.56;;;8.02;50.55
5522;BME280;2783;48.730;8.006;2023-01-29T11:32:38;101328.38;;;8.10;49.94
5522;BME280;2783;48.730;8.006;2023-01-29T11:35:18;101329.28;;;8.01;51.67
5522;BME280;2783;48.730;8.006;2023-01-29T11:37:44;101327.53;;;8.01;50.92
5522;BME280;2783;48.730;8.006;2023-01-29T11:42:47;101317.78;;;8.25;51.67
5522;BME280;2783;48.730;8.006;2023-01-29T11:47:47;101317.56;;;8.82;49.51
5522;BME280;2783;48.730;8.006;2023-01-29T11:50:18;101322.75;;;9.03;48.97
5522;BME280;2783;48.730;8.006;2023-01-29T11:52:43;101320.00;;;9.25;48.64
5522;BME280;2783;48.730;8.006;2023-01-29T11:55:16;101303.19;;;9.22;48.41
5522;BME280;2783;48.730;8.006;2023-01-29T11:57:42;101305.88;;;9.16;48.00
5522;BME280;2783;48.730;8.006;2023-01-29T12:00:21;101301.53;;;9.06;48.49
5522;BME280;2783;48.730;8.006;2023-01-29T12:02:49;101298.94;;;8.97;48.65
5522;BME280;2783;48.730;8.006;2023-01-29T12:05:18;101289.97;;;9.17;49.24
5522;BME280;2783;48.730;8.006;2023-01-29T12:07:52;101281.78;;;9.45;48.03
5522;BME280;2783;48.730;8.006;2023-01-29T12:10:37;101278.00;;;9.73;47.53
5522;BME280;2783;48.730;8.006;2023-01-29T12:15:37;101255.94;;;10.46;46.05
5522;BME280;2783;48.730;8.006;2023-01-29T12:20:47;101238.38;;;11.53;46.21
5522;BME280;2783;48.730;8.006;2023-01-29T12:28:30;101226.75;;;12.91;42.76
5522;BME280;2783;48.730;8.006;2023-01-29T12:33:50;101225.13;;;13.91;38.57
5522;BME280;2783;48.730;8.006;2023-01-29T12:36:19;101212.69;;;13.89;39.79
5522;BME280;2783;48.730;8.006;2023-01-29T12:38:45;101203.34;;;13.73;38.91
5522;BME280;2783;48.730;8.006;2023-01-29T12:43:49;101198.06;;;14.03;37.44
5522;BME280;2783;48.730;8.006;2023-01-29T12:46:20;101203.19;;;13.79;39.59
5522;BME280;2783;48.730;8.006;2023-01-29T12:48:45;101205.25;;;13.68;38.75
5522;BME280;2783;48.730;8.006;2023-01-29T12:51:13;101188.09;;;13.43;38.78
5522;BME280;2783;48.730;8.006;2023-01-29T12:53:47;101177.19;;;13.16;38.15
5522;BME280;2783;48.730;8.006;2023-01-29T12:56:15;101170.63;;;13.30;38.97
5522;BME280;2783;48.730;8.006;2023-01-29T12:58:44;101167.13;;;13.93;39.42
5522;BME280;2783;48.730;8.006;2023-01-29T13:01:15;101174.88;;;14.02;39.21
5522;BME280;2783;48.730;8.006;2023-01-29T13:04:17;101176.00;;;13.94;38.59
5522;BME280;2783;48.730;8.006;2023-01-29T13:06:35;101180.69;;;14.18;38.20
5522;BME280;2783;48.730;8.006;2023-01-29T13:09:06;101169.06;;;14.19;37.22
5522;BME280;2783;48.730;8.006;2023-01-29T13:11:39;101164.28;;;13.67;38.68
5522;BME280;2783;48.730;8.006;2023-01-29T13:14:12;101164.06;;;13.07;38.82
5522;BME280;2783;48.730;8.006;2023-01-29T13:16:44;101160.47;;;12.70;40.30
5522;BME280;2783;48.730;8.006;2023-01-29T13:19:24;101151.81;;;12.20;40.35
5522;BME280;2783;48.730;8.006;2023-01-29T13:21:51;101156.47;;;11.66;41.84
5522;BME280;2783;48.730;8.006;2023-01-29T13:24:19;101154.78;;;11.10;42.85
5522;BME280;2783;48.730;8.006;2023-01-29T13:26:46;101164.06;;;10.21;44.11
5522;BME280;2783;48.730;8.006;2023-01-29T13:31:46;101167.00;;;9.14;45.73
5522;BME280;2783;48.730;8.006;2023-01-29T13:34:13;101174.44;;;8.65;47.80
5522;BME280;2783;48.730;8.006;2023-01-29T13:36:43;101172.06;;;8.05;48.54
5522;BME280;2783;48.730;8.006;2023-01-29T13:39:15;101172.13;;;7.82;50.05
5522;BME280;2783;48.730;8.006;2023-01-29T13:41:41;101179.19;;;7.91;51.09
5522;BME280;2783;48.730;8.006;2023-01-29T13:44:15;101169.47;;;7.91;50.24
5522;BME280;2783;48.730;8.006;2023-01-29T13:46:42;101160.66;;;7.89;50.66
5522;BME280;2783;48.730;8.006;2023-01-29T13:49:58;101170.38;;;7.86;50.42
5522;BME280;2783;48.730;8.006;2023-01-29T13:51:57;101164.22;;;7.85;51.97
5522;BME280;2783;48.730;8.006;2023-01-29T13:54:24;101170.41;;;7.78;51.08
5522;BME280;2783;48.730;8.006;2023-01-29T13:59:22;101167.84;;;7.54;52.98
5522;BME280;2783;48.730;8.006;2023-01-29T14:06:53;101154.63;;;7.11;52.46
5522;BME280;2783;48.730;8.006;2023-01-29T14:12:03;101150.22;;;7.19;53.83
5522;BME280;2783;48.730;8.006;2023-01-29T14:17:15;101153.75;;;7.25;52.85
5522;BME280;2783;48.730;8.006;2023-01-29T14:22:35;101158.19;;;6.93;53.50
5522;BME280;2783;48.730;8.006;2023-01-29T14:25:02;101146.69;;;6.82;54.05
5522;BME280;2783;48.730;8.006;2023-01-29T14:27:28;101153.75;;;6.77;54.00
5522;BME280;2783;48.730;8.006;2023-01-29T14:30:00;101149.34;;;6.75;54.36
5522;BME280;2783;48.730;8.006;2023-01-29T14:32:26;101135.22;;;6.76;55.32
5522;BME280;2783;48.730;8.006;2023-01-29T14:35:01;101142.31;;;6.78;56.40
5522;BME280;2783;48.730;8.006;2023-01-29T14:40:06;101153.75;;;6.66;56.56
5522;BME280;2783;48.730;8.006;2023-01-29T14:42:54;101151.97;;;6.55;56.49
5522;BME280;2783;48.730;8.006;2023-01-29T14:47:51;101157.25;;;6.49;57.16
5522;BME280;2783;48.730;8.006;2023-01-29T14:55:43;101159.00;;;6.47;58.27
5522;BME280;2783;48.730;8.006;2023-01-29T14:58:13;101152.81;;;6.37;57.56
5522;BME280;2783;48.730;8.006;2023-01-29T15:00:40;101151.88;;;6.28;58.01
5522;BME280;2783;48.730;8.006;2023-01-29T15:03:17;101147.44;;;6.15;58.29
5522;BME280;2783;48.730;8.006;2023-01-29T15:05:43;101140.34;;;5.97;58.71
5522;BME280;2783;48.730;8.006;2023-01-29T15:08:26;101140.34;;;5.96;58.90
5522;BME280;2783;48.730;8.006;2023-01-29T15:10:56;101139.44;;;5.88;59.47
5522;BME280;2783;48.730;8.006;2023-01-29T15:13:44;101127.06;;;5.81;60.27
5522;BME280;2783;48.730;8.006;2023-01-29T15:16:16;101142.88;;;5.73;61.14
5522;BME280;2783;48.730;8.006;2023-01-29T15:18:43;101141.97;;;5.68;60.62
5522;BME280;2783;48.730;8.006;2023-01-29T15:21:10;101135.78;;;5.65;61.08
5522;BME280;2783;48.730;8.006;2023-01-29T15:23:36;101141.00;;;5.56;60.73
5522;BME280;2783;48.730;8.006;2023-01-29T15:26:04;101133.03;;;5.44;61.10
5522;BME280;2783;48.730;8.006;2023-01-29T15:28:31;101147.06;;;5.41;61.21
5522;BME280;2783;48.730;8.006;2023-01-29T15:30:58;101148.81;;;5.39;61.60
5522;BME280;2783;48.730;8.006;2023-01-29T15:33:24;101139.13;;;5.36;61.75
5522;BME280;2783;48.730;8.006;2023-01-29T15:35:54;101134.69;;;5.31;62.06
5522;BME280;2783;48.730;8.006;2023-01-29T15:38:21;101132.88;;;5.25;62.36
5522;BME280;2783;48.730;8.006;2023-01-29T15:43:20;101142.47;;;5.08;62.56
5522;BME280;2783;48.730;8.006;2023-01-29T15:45:46;101138.94;;;5.08;63.02
5522;BME280;2783;48.730;8.006;2023-01-29T15:48:13;101142.44;;;5.04;63.60
5522;BME280;2783;48.730;8.006;2023-01-29T15:50:41;101137.97;;;4.97;63.16
5522;BME280;2783;48.730;8.006;2023-01-29T15:53:14;101145.84;;;4.92;64.11
5522;BME280;2783;48.730;8.006;2023-01-29T15:55:41;101153.69;;;4.85;64.36
5522;BME280;2783;48.730;8.006;2023-01-29T15:58:10;101148.38;;;4.79;64.69
5522;BME280;2783;48.730;8.006;2023-01-29T16:00:37;101150.06;;;4.71;65.90